PWSweather.com
Personal Weather Stations
Station Observations
NORTHPOLE1
Tombur Subdivision, North Pole, AK 99705

Tombur SubdivisionNorth Pole, AK 99705

Lat: 64.774039, Lon: -147.284862

Elevation: 434

Station Type: Davis Vantage Pro 2

http://kl7ac.com

Latest ConditionsUpdated 4:55:00 AM AKST Wednesday, Apr 23, 2014
Currently Today's Max Today's Min Today's Average
Temperature 29.4°F-1.4°C 35.1°F1.7°C 29.4°F-1.4°C 32.1°F0.1°C
Dew Point 23.7°F-4.6°C 25.9°F-3.4°C 23.4°F-4.8°C 24.4°F-4.2°C
Winds 3.0 mph NE4.8 kmh NE 5.0 mph NNE8.0 kmh NNE - 2.7 mph 4.3 kmh
Wind Gusts 11.0 mph17.7 kmh 11.0 mph17.7 kmh - -
Humidity 79% 79% 68% 73%
Pressure 29.69 in1005.4 mb 29.71 in1006.1 mb 29.69 in1005.4 mb -
Hour Temp Dew Point Humidity Winds Wind Gusts Pressure Precip Precip Rate Daily Precip Total
04:55 AM 29.4°F-1.4°C 23.7°F-4.6°C 79% 3.0 mph NE4.8 kmh NE 11.0 mph17.7 kmh 29.69 in1005.4 mb 0.00 in0.0 mm 0.00 in/hr0.0 mm/hr 0.00 in0.0 mm
04:50 AM 29.5°F-1.4°C 23.5°F-4.7°C 78% 2.0 mph NE3.2 kmh NE 6.0 mph9.7 kmh 29.69 in1005.4 mb 0.00 in0.0 mm 0.00 in/hr0.0 mm/hr 0.00 in0.0 mm
04:45 AM 29.7°F-1.3°C 23.4°F-4.8°C 77% 2.0 mph NE3.2 kmh NE 11.0 mph17.7 kmh 29.69 in1005.4 mb 0.00 in0.0 mm 0.00 in/hr0.0 mm/hr 0.00 in0.0 mm
04:40 AM 29.8°F-1.2°C 23.5°F-4.7°C 77% 2.0 mph NE3.2 kmh NE 11.0 mph17.7 kmh 29.69 in1005.4 mb 0.00 in0.0 mm 0.00 in/hr0.0 mm/hr 0.00 in0.0 mm
04:35 AM 30.0°F-1.1°C 23.7°F-4.6°C 77% 2.0 mph NE3.2 kmh NE 6.0 mph9.7 kmh 29.69 in1005.4 mb 0.00 in0.0 mm 0.00 in/hr0.0 mm/hr 0.00 in0.0 mm
04:30 AM 30.2°F-1.0°C 23.9°F-4.5°C 77% 2.0 mph NE3.2 kmh NE 6.0 mph9.7 kmh 29.69 in1005.4 mb 0.00 in0.0 mm 0.00 in/hr0.0 mm/hr 0.00 in0.0 mm
04:25 AM 30.3°F-0.9°C 23.6°F-4.7°C 76% 2.0 mph NE3.2 kmh NE 11.0 mph17.7 kmh 29.69 in1005.4 mb 0.00 in0.0 mm 0.00 in/hr0.0 mm/hr 0.00 in0.0 mm
04:20 AM 30.6°F-0.8°C 23.6°F-4.7°C 75% 2.0 mph NE3.2 kmh NE 11.0 mph17.7 kmh 29.69 in1005.4 mb 0.00 in0.0 mm 0.00 in/hr0.0 mm/hr 0.00 in0.0 mm
04:15 AM 30.8°F-0.7°C 23.8°F-4.6°C 75% 2.0 mph NE3.2 kmh NE 6.0 mph9.7 kmh 29.69 in1005.4 mb 0.00 in0.0 mm 0.00 in/hr0.0 mm/hr 0.00 in0.0 mm
04:10 AM 31.0°F-0.6°C 24.0°F-4.4°C 75% 2.0 mph NE3.2 kmh NE 6.0 mph9.7 kmh 29.69 in1005.4 mb 0.00 in0.0 mm 0.00 in/hr0.0 mm/hr 0.00 in0.0 mm
04:05 AM 31.2°F-0.4°C 23.9°F-4.5°C 74% 2.0 mph NE3.2 kmh NE 6.0 mph9.7 kmh 29.69 in1005.4 mb 0.00 in0.0 mm 0.00 in/hr0.0 mm/hr 0.00 in0.0 mm
04:00 AM 31.4°F-0.3°C 23.7°F-4.6°C 73% 2.0 mph NE3.2 kmh NE 6.0 mph9.7 kmh 29.69 in1005.4 mb 0.00 in0.0 mm 0.00 in/hr0.0 mm/hr 0.00 in0.0 mm
03:55 AM 31.5°F-0.3°C 23.8°F-4.6°C 73% 2.0 mph NE3.2 kmh NE 7.0 mph11.3 kmh 29.69 in1005.4 mb 0.00 in0.0 mm 0.00 in/hr0.0 mm/hr 0.00 in0.0 mm
03:50 AM 31.5°F-0.3°C 23.5°F-4.7°C 72% 2.0 mph NE3.2 kmh NE 8.0 mph12.9 kmh 29.69 in1005.4 mb 0.00 in0.0 mm 0.00 in/hr0.0 mm/hr 0.00 in0.0 mm
03:45 AM 31.5°F-0.3°C 23.5°F-4.7°C 72% 3.0 mph NE4.8 kmh NE 8.0 mph12.9 kmh 29.69 in1005.4 mb 0.00 in0.0 mm 0.00 in/hr0.0 mm/hr 0.00 in0.0 mm
03:40 AM 31.4°F-0.3°C 23.4°F-4.8°C 72% 3.0 mph NE4.8 kmh NE 7.0 mph11.3 kmh 29.69 in1005.4 mb 0.00 in0.0 mm 0.00 in/hr0.0 mm/hr 0.00 in0.0 mm
03:35 AM 31.1°F-0.5°C 23.5°F-4.7°C 73% 3.0 mph NE4.8 kmh NE 7.0 mph11.3 kmh 29.69 in1005.4 mb 0.00 in0.0 mm 0.00 in/hr0.0 mm/hr 0.00 in0.0 mm
03:30 AM 30.9°F-0.6°C 23.6°F-4.7°C 74% 3.0 mph NE4.8 kmh NE 7.0 mph11.3 kmh 29.69 in1005.4 mb 0.00 in0.0 mm 0.00 in/hr0.0 mm/hr 0.00 in0.0 mm
03:25 AM 30.8°F-0.7°C 24.1°F-4.4°C 76% 3.0 mph NE4.8 kmh NE 7.0 mph11.3 kmh 29.69 in1005.4 mb 0.00 in0.0 mm 0.00 in/hr0.0 mm/hr 0.00 in0.0 mm
03:20 AM 30.7°F-0.7°C 23.7°F-4.6°C 75% 3.0 mph NE4.8 kmh NE 9.0 mph14.5 kmh 29.70 in1005.8 mb 0.00 in0.0 mm 0.00 in/hr0.0 mm/hr 0.00 in0.0 mm
03:15 AM 30.7°F-0.7°C 23.4°F-4.8°C 74% 3.0 mph NE4.8 kmh NE 9.0 mph14.5 kmh 29.70 in1005.8 mb 0.00 in0.0 mm 0.00 in/hr0.0 mm/hr 0.00 in0.0 mm
03:10 AM 30.8°F-0.7°C 23.8°F-4.6°C 75% 3.0 mph NE4.8 kmh NE 11.0 mph17.7 kmh 29.70 in1005.8 mb 0.00 in0.0 mm 0.00 in/hr0.0 mm/hr 0.00 in0.0 mm
03:05 AM 30.8°F-0.7°C 23.8°F-4.6°C 75% 3.0 mph NE4.8 kmh NE 11.0 mph17.7 kmh 29.70 in1005.8 mb 0.00 in0.0 mm 0.00 in/hr0.0 mm/hr 0.00 in0.0 mm
03:00 AM 31.0°F-0.6°C 24.0°F-4.4°C 75% 3.0 mph NNE4.8 kmh NNE 10.0 mph16.1 kmh 29.70 in1005.8 mb 0.00 in0.0 mm 0.00 in/hr0.0 mm/hr 0.00 in0.0 mm
02:55 AM 31.2°F-0.4°C 24.2°F-4.3°C 75% 3.0 mph NNE4.8 kmh NNE 7.0 mph11.3 kmh 29.70 in1005.8 mb 0.00 in0.0 mm 0.00 in/hr0.0 mm/hr 0.00 in0.0 mm
02:50 AM 31.2°F-0.4°C 23.9°F-4.5°C 74% 2.0 mph NE3.2 kmh NE 7.0 mph11.3 kmh 29.70 in1005.8 mb 0.00 in0.0 mm 0.00 in/hr0.0 mm/hr 0.00 in0.0 mm
02:45 AM 31.3°F-0.4°C 24.0°F-4.4°C 74% 3.0 mph NE4.8 kmh NE 7.0 mph11.3 kmh 29.70 in1005.8 mb 0.00 in0.0 mm 0.00 in/hr0.0 mm/hr 0.00 in0.0 mm
02:40 AM 31.4°F-0.3°C 23.7°F-4.6°C 73% 3.0 mph NNE4.8 kmh NNE 6.0 mph9.7 kmh 29.70 in1005.8 mb 0.00 in0.0 mm 0.00 in/hr0.0 mm/hr 0.00 in0.0 mm
02:35 AM 31.6°F-0.2°C 23.9°F-4.5°C 73% 2.0 mph NNE3.2 kmh NNE 6.0 mph9.7 kmh 29.70 in1005.8 mb 0.00 in0.0 mm 0.00 in/hr0.0 mm/hr 0.00 in0.0 mm
02:30 AM 31.8°F-0.1°C 24.1°F-4.4°C 73% 2.0 mph NNE3.2 kmh NNE 6.0 mph9.7 kmh 29.70 in1005.8 mb 0.00 in0.0 mm 0.00 in/hr0.0 mm/hr 0.00 in0.0 mm
02:25 AM 32.0°F0.0°C 24.3°F-4.3°C 73% 3.0 mph NNE4.8 kmh NNE 5.0 mph8.0 kmh 29.70 in1005.8 mb 0.00 in0.0 mm 0.00 in/hr0.0 mm/hr 0.00 in0.0 mm
02:20 AM 32.3°F0.2°C 24.6°F-4.1°C 73% 3.0 mph NNE4.8 kmh NNE 5.0 mph8.0 kmh 29.70 in1005.8 mb 0.00 in0.0 mm 0.00 in/hr0.0 mm/hr 0.00 in0.0 mm
02:15 AM 32.5°F0.3°C 24.1°F-4.4°C 71% 3.0 mph NNE4.8 kmh NNE 7.0 mph11.3 kmh 29.70 in1005.8 mb 0.00 in0.0 mm 0.00 in/hr0.0 mm/hr 0.00 in0.0 mm
02:10 AM 32.7°F0.4°C 24.7°F-4.1°C 72% 3.0 mph NNE4.8 kmh NNE 7.0 mph11.3 kmh 29.70 in1005.8 mb 0.00 in0.0 mm 0.00 in/hr0.0 mm/hr 0.00 in0.0 mm
02:05 AM 32.9°F0.5°C 24.5°F-4.2°C 71% 3.0 mph NNE4.8 kmh NNE 6.0 mph9.7 kmh 29.70 in1005.8 mb 0.00 in0.0 mm 0.00 in/hr0.0 mm/hr 0.00 in0.0 mm
02:00 AM 33.2°F0.7°C 24.8°F-4.0°C 71% 3.0 mph NNE4.8 kmh NNE 7.0 mph11.3 kmh 29.70 in1005.8 mb 0.00 in0.0 mm 0.00 in/hr0.0 mm/hr 0.00 in0.0 mm
01:55 AM 33.3°F0.7°C 24.6°F-4.1°C 70% 3.0 mph NE4.8 kmh NE 7.0 mph11.3 kmh 29.70 in1005.8 mb 0.00 in0.0 mm 0.00 in/hr0.0 mm/hr 0.00 in0.0 mm
01:50 AM 33.3°F0.7°C 24.6°F-4.1°C 70% 3.0 mph NE4.8 kmh NE 7.0 mph11.3 kmh 29.70 in1005.8 mb 0.00 in0.0 mm 0.00 in/hr0.0 mm/hr 0.00 in0.0 mm
01:45 AM 33.3°F0.7°C 24.6°F-4.1°C 70% 4.0 mph NE6.4 kmh NE 7.0 mph11.3 kmh 29.70 in1005.8 mb 0.00 in0.0 mm 0.00 in/hr0.0 mm/hr 0.00 in0.0 mm
01:40 AM 33.3°F0.7°C 24.6°F-4.1°C 70% 3.0 mph NE4.8 kmh NE 7.0 mph11.3 kmh 29.70 in1005.8 mb 0.00 in0.0 mm 0.00 in/hr0.0 mm/hr 0.00 in0.0 mm
01:35 AM 33.3°F0.7°C 24.6°F-4.1°C 70% 3.0 mph NE4.8 kmh NE 9.0 mph14.5 kmh 29.70 in1005.8 mb 0.00 in0.0 mm 0.00 in/hr0.0 mm/hr 0.00 in0.0 mm
01:30 AM 33.1°F0.6°C 24.7°F-4.1°C 71% 4.0 mph NE6.4 kmh NE 10.0 mph16.1 kmh 29.70 in1005.8 mb 0.00 in0.0 mm 0.00 in/hr0.0 mm/hr 0.00 in0.0 mm
01:25 AM 32.7°F0.4°C 24.7°F-4.1°C 72% 4.0 mph NE6.4 kmh NE 10.0 mph16.1 kmh 29.70 in1005.8 mb 0.00 in0.0 mm 0.00 in/hr0.0 mm/hr 0.00 in0.0 mm
01:20 AM 32.4°F0.2°C 24.7°F-4.1°C 73% 3.0 mph NE4.8 kmh NE 7.0 mph11.3 kmh 29.70 in1005.8 mb 0.00 in0.0 mm 0.00 in/hr0.0 mm/hr 0.00 in0.0 mm
01:15 AM 32.2°F0.1°C 24.5°F-4.2°C 73% 4.0 mph NE6.4 kmh NE 10.0 mph16.1 kmh 29.71 in1006.1 mb 0.00 in0.0 mm 0.00 in/hr0.0 mm/hr 0.00 in0.0 mm
01:10 AM 32.3°F0.2°C 25.3°F-3.7°C 75% 5.0 mph NNE8.0 kmh NNE 10.0 mph16.1 kmh 29.70 in1005.8 mb 0.00 in0.0 mm 0.00 in/hr0.0 mm/hr 0.00 in0.0 mm
01:05 AM 32.5°F0.3°C 25.5°F-3.6°C 75% 4.0 mph NE6.4 kmh NE 9.0 mph14.5 kmh 29.70 in1005.8 mb 0.00 in0.0 mm 0.00 in/hr0.0 mm/hr 0.00 in0.0 mm
01:00 AM 32.7°F0.4°C 25.6°F-3.6°C 75% 3.0 mph NE4.8 kmh NE 7.0 mph11.3 kmh 29.71 in1006.1 mb 0.00 in0.0 mm 0.00 in/hr0.0 mm/hr 0.00 in0.0 mm
12:55 AM 32.9°F0.5°C 25.5°F-3.6°C 74% 2.0 mph NE3.2 kmh NE 6.0 mph9.7 kmh 29.71 in1006.1 mb 0.00 in0.0 mm 0.00 in/hr0.0 mm/hr 0.00 in0.0 mm
12:50 AM 33.0°F0.6°C 25.3°F-3.7°C 73% 2.0 mph NE3.2 kmh NE 7.0 mph11.3 kmh 29.71 in1006.1 mb 0.00 in0.0 mm 0.00 in/hr0.0 mm/hr 0.00 in0.0 mm
12:45 AM 33.2°F0.7°C 25.5°F-3.6°C 73% 2.0 mph NE3.2 kmh NE 7.0 mph11.3 kmh 29.71 in1006.1 mb 0.00 in0.0 mm 0.00 in/hr0.0 mm/hr 0.00 in0.0 mm
12:40 AM 33.4°F0.8°C 25.3°F-3.7°C 72% 2.0 mph NE3.2 kmh NE 6.0 mph9.7 kmh 29.71 in1006.1 mb 0.00 in0.0 mm 0.00 in/hr0.0 mm/hr 0.00 in0.0 mm
12:35 AM 33.7°F0.9°C 25.6°F-3.6°C 72% 2.0 mph NE3.2 kmh NE 6.0 mph9.7 kmh 29.71 in1006.1 mb 0.00 in0.0 mm 0.00 in/hr0.0 mm/hr 0.00 in0.0 mm
12:30 AM 34.0°F1.1°C 25.9°F-3.4°C 72% 2.0 mph NE3.2 kmh NE 6.0 mph9.7 kmh 29.71 in1006.1 mb 0.00 in0.0 mm 0.00 in/hr0.0 mm/hr 0.00 in0.0 mm
12:25 AM 34.3°F1.3°C 25.5°F-3.6°C 70% 2.0 mph NE3.2 kmh NE 6.0 mph9.7 kmh 29.71 in1006.1 mb 0.00 in0.0 mm 0.00 in/hr0.0 mm/hr 0.00 in0.0 mm
12:20 AM 34.4°F1.3°C 25.6°F-3.6°C 70% 2.0 mph NE3.2 kmh NE 6.0 mph9.7 kmh 29.71 in1006.1 mb 0.00 in0.0 mm 0.00 in/hr0.0 mm/hr 0.00 in0.0 mm
12:15 AM 34.7°F1.5°C 25.9°F-3.4°C 70% 1.0 mph NE1.6 kmh NE 4.0 mph6.4 kmh 29.71 in1006.1 mb 0.00 in0.0 mm 0.00 in/hr0.0 mm/hr 0.00 in0.0 mm
12:10 AM 35.0°F1.7°C 25.5°F-3.6°C 68% 2.0 mph NE3.2 kmh NE 6.0 mph9.7 kmh 29.71 in1006.1 mb 0.00 in0.0 mm 0.00 in/hr0.0 mm/hr 0.00 in0.0 mm
12:05 AM 35.0°F1.7°C 25.5°F-3.6°C 68% 2.0 mph NE3.2 kmh NE 7.0 mph11.3 kmh 29.71 in1006.1 mb 0.00 in0.0 mm 0.00 in/hr0.0 mm/hr 0.00 in0.0 mm
12:00 AM 35.1°F1.7°C 25.6°F-3.6°C 68% 3.0 mph NE4.8 kmh NE 7.0 mph11.3 kmh 29.71 in1006.1 mb 0.00 in0.0 mm 0.00 in/hr0.0 mm/hr 0.00 in0.0 mm